< < Back
Terminal Aerodrome Forecast


Current Version              Previous Versions:   1  2  3  4  5  6  7  8  9  

Terminal Aerodrome Forecast

218
FTUS42 KTAE 261734
TAFVLD
TAF
KVLD 261734Z 2618/2718 12009KT P6SM TSRA BKN050CB
     FM262000 06005KT P6SM VCTS SCT025CB BKN050
     FM270100 VRB03KT P6SM SCT040 BKN250=

Latest METAR

864
SAUS70 KWBC 271400 RRT
MTRVLD
METAR KVLD 271353Z 00000KT 10SM CLR 27/24 A3011 RMK AO2 SLP202
T02720239


USA.gov is the U.S. government's official web portal to all federal, state and local government web resources and services.